Portada
METAR-TAF:

METAR-TAF

Aeropuertos :

Jerez de la Frontera, España

Aeropuerto de Jerez

latitud: 36-45N, longitud: 006-04W, altitud: 27 m

Observación

El informe se hizo hace 43 minutos, a las 04:00 UTC
Viento calma
Temperatura 17°C
Humedad 88%
Presión 1012 hPa
Visibilidad 10 km o más
sin nubes por debajo de 1500 m y sin presencia de cumulonimbus.

METAR: LEJR 210400Z 00000KT CAVOK 17/15 Q1012

Hora: 06:43 (04:43 UTC)

Pronóstico

El informe se hizo hace 5 horas y 43 minutos, a las 23:00 UTC
Pronóstico válido del 21 a las 00 UTC al 21 a las 24 UTC
Viento 5 kt del oeste-suroeste
Visibilidad 10 km o más
sin nubes por debajo de 1500 m y sin presencia de cumulonimbus.

TAF: LEJR 202300Z 2100/2124 25005KT CAVOK TX27/2113Z TN17/2106Z

Observaciones y pronósticos meteorológicos de más de 4000 aeropuertos (mensajes METAR y TAF).

Los puntos amarillos y rojos representan las estaciones disponibles.

Ponga el ratón en el punto deseado para ver el nombre de la estación.

Haga clic para ver las observaciones y los pronósticos meteorológicos.

Para cambiar el mapa : haga clic en los botones verdes con una cruz de color negro para hacer un zoom, en el botón verde con un guión para alejar o en las flechas verdes para mapas adyacentes.


METAR-TAF: